sensor_id;sensor_type;location;lat;lon;timestamp;pressure;altitude;pressure_sealevel;temperature;humidity
31346;BME280;21711;49.708;18.568;2023-07-20T00:02:11;96780.25;;;19.42;100.00
31346;BME280;21711;49.708;18.568;2023-07-20T00:04:38;96772.44;;;19.37;100.00
31346;BME280;21711;49.708;18.568;2023-07-20T00:07:06;96762.19;;;19.27;100.00
31346;BME280;21711;49.708;18.568;2023-07-20T00:09:33;96754.59;;;19.29;100.00
31346;BME280;21711;49.708;18.568;2023-07-20T00:12:00;96751.59;;;19.30;100.00
31346;BME280;21711;49.708;18.568;2023-07-20T00:14:28;96750.09;;;19.17;100.00
31346;BME280;21711;49.708;18.568;2023-07-20T00:16:56;96753.13;;;19.31;100.00
31346;BME280;21711;49.708;18.568;2023-07-20T00:19:25;96746.06;;;19.39;100.00
31346;BME280;21711;49.708;18.568;2023-07-20T00:21:54;96743.03;;;19.41;100.00
31346;BME280;21711;49.708;18.568;2023-07-20T00:24:22;96745.44;;;19.30;100.00
31346;BME280;21711;49.708;18.568;2023-07-20T00:26:49;96738.06;;;19.27;100.00
31346;BME280;21711;49.708;18.568;2023-07-20T00:29:17;96735.22;;;19.19;100.00
31346;BME280;21711;49.708;18.568;2023-07-20T00:31:46;96732.50;;;19.32;100.00
31346;BME280;21711;49.708;18.568;2023-07-20T00:34:15;96724.19;;;19.37;100.00
31346;BME280;21711;49.708;18.568;2023-07-20T00:36:42;96720.31;;;19.35;100.00
31346;BME280;21711;49.708;18.568;2023-07-20T00:39:09;96715.69;;;19.35;98.51
31346;BME280;21711;49.708;18.568;2023-07-20T00:41:37;96728.81;;;19.24;100.00
31346;BME280;21711;49.708;18.568;2023-07-20T00:44:05;96737.34;;;19.14;100.00
31346;BME280;21711;49.708;18.568;2023-07-20T00:46:33;96742.69;;;18.85;100.00
31346;BME280;21711;49.708;18.568;2023-07-20T00:49:01;96734.59;;;18.69;100.00
31346;BME280;21711;49.708;18.568;2023-07-20T00:51:29;96738.06;;;18.57;100.00
31346;BME280;21711;49.708;18.568;2023-07-20T00:53:56;96744.00;;;18.50;100.00
31346;BME280;21711;49.708;18.568;2023-07-20T00:56:24;96732.66;;;18.70;100.00
31346;BME280;21711;49.708;18.568;2023-07-20T00:58:52;96729.97;;;18.82;100.00
31346;BME280;21711;49.708;18.568;2023-07-20T01:01:22;96725.16;;;18.88;100.00
31346;BME280;21711;49.708;18.568;2023-07-20T01:03:49;96739.63;;;18.99;100.00
31346;BME280;21711;49.708;18.568;2023-07-20T01:09:19;96742.81;;;18.76;100.00
31346;BME280;21711;49.708;18.568;2023-07-20T01:12:12;96739.16;;;18.69;100.00
31346;BME280;21711;49.708;18.568;2023-07-20T01:14:40;96755.44;;;18.63;100.00
31346;BME280;21711;49.708;18.568;2023-07-20T01:17:08;96755.91;;;18.65;100.00
31346;BME280;21711;49.708;18.568;2023-07-20T01:19:36;96752.31;;;18.74;100.00
31346;BME280;21711;49.708;18.568;2023-07-20T01:31:36;96743.19;;;18.62;100.00
31346;BME280;21711;49.708;18.568;2023-07-20T01:34:06;96755.69;;;18.71;100.00
31346;BME280;21711;49.708;18.568;2023-07-20T01:36:38;96759.38;;;18.53;100.00
31346;BME280;21711;49.708;18.568;2023-07-20T01:39:06;96753.16;;;18.49;100.00
31346;BME280;21711;49.708;18.568;2023-07-20T01:41:35;96755.38;;;18.47;100.00
31346;BME280;21711;49.708;18.568;2023-07-20T01:44:04;96759.06;;;18.43;100.00
31346;BME280;21711;49.708;18.568;2023-07-20T01:46:31;96767.19;;;18.34;100.00
31346;BME280;21711;49.708;18.568;2023-07-20T01:48:58;96781.94;;;18.40;100.00
31346;BME280;21711;49.708;18.568;2023-07-20T01:51:26;96784.28;;;18.42;100.00
31346;BME280;21711;49.708;18.568;2023-07-20T01:53:53;96783.34;;;18.62;100.00
31346;BME280;21711;49.708;18.568;2023-07-20T01:56:21;96777.84;;;18.71;100.00
31346;BME280;21711;49.708;18.568;2023-07-20T01:58:49;96776.72;;;18.85;100.00
31346;BME280;21711;49.708;18.568;2023-07-20T02:01:17;96795.81;;;18.83;100.00
31346;BME280;21711;49.708;18.568;2023-07-20T02:03:44;96800.03;;;18.84;100.00
31346;BME280;21711;49.708;18.568;2023-07-20T02:06:12;96800.50;;;18.86;100.00
31346;BME280;21711;49.708;18.568;2023-07-20T02:08:39;96803.47;;;18.97;100.00
31346;BME280;21711;49.708;18.568;2023-07-20T02:11:06;96793.44;;;18.94;100.00
31346;BME280;21711;49.708;18.568;2023-07-20T02:13:34;96799.59;;;18.82;100.00
31346;BME280;21711;49.708;18.568;2023-07-20T02:16:01;96806.44;;;18.67;100.00
31346;BME280;21711;49.708;18.568;2023-07-20T02:18:28;96805.00;;;18.57;100.00
31346;BME280;21711;49.708;18.568;2023-07-20T02:20:56;96800.50;;;18.74;100.00
31346;BME280;21711;49.708;18.568;2023-07-20T02:23:23;96800.63;;;18.77;100.00
31346;BME280;21711;49.708;18.568;2023-07-20T02:25:50;96808.00;;;18.68;100.00
31346;BME280;21711;49.708;18.568;2023-07-20T02:28:18;96821.06;;;18.57;100.00
31346;BME280;21711;49.708;18.568;2023-07-20T02:30:45;96818.72;;;18.56;100.00
31346;BME280;21711;49.708;18.568;2023-07-20T02:33:13;96819.72;;;18.51;100.00
31346;BME280;21711;49.708;18.568;2023-07-20T02:35:41;96826.28;;;18.29;100.00
31346;BME280;21711;49.708;18.568;2023-07-20T02:38:08;96827.41;;;18.27;100.00
31346;BME280;21711;49.708;18.568;2023-07-20T02:40:37;96840.78;;;18.27;100.00
31346;BME280;21711;49.708;18.568;2023-07-20T02:43:05;96848.47;;;18.17;100.00
31346;BME280;21711;49.708;18.568;2023-07-20T02:45:32;96850.59;;;18.11;100.00
31346;BME280;21711;49.708;18.568;2023-07-20T02:47:59;96846.81;;;18.12;100.00
31346;BME280;21711;49.708;18.568;2023-07-20T02:50:28;96843.53;;;18.06;100.00
31346;BME280;21711;49.708;18.568;2023-07-20T02:52:55;96838.84;;;18.03;100.00
31346;BME280;21711;49.708;18.568;2023-07-20T02:55:22;96845.16;;;17.86;100.00
31346;BME280;21711;49.708;18.568;2023-07-20T02:57:50;96840.22;;;17.75;100.00
31346;BME280;21711;49.708;18.568;2023-07-20T03:00:18;96849.38;;;17.74;100.00
31346;BME280;21711;49.708;18.568;2023-07-20T03:02:46;96858.50;;;17.73;100.00
31346;BME280;21711;49.708;18.568;2023-07-20T03:05:20;96863.19;;;17.77;100.00
31346;BME280;21711;49.708;18.568;2023-07-20T03:07:47;96869.97;;;17.74;100.00
31346;BME280;21711;49.708;18.568;2023-07-20T03:10:15;96873.53;;;17.66;100.00
31346;BME280;21711;49.708;18.568;2023-07-20T03:12:42;96880.63;;;17.61;100.00
31346;BME280;21711;49.708;18.568;2023-07-20T03:15:10;96882.84;;;17.59;100.00
31346;BME280;21711;49.708;18.568;2023-07-20T03:17:37;96889.56;;;17.66;100.00
31346;BME280;21711;49.708;18.568;2023-07-20T03:20:05;96900.00;;;17.58;100.00
31346;BME280;21711;49.708;18.568;2023-07-20T03:22:36;96896.66;;;17.61;100.00
31346;BME280;21711;49.708;18.568;2023-07-20T03:25:04;96903.50;;;17.50;100.00
31346;BME280;21711;49.708;18.568;2023-07-20T03:27:32;96891.66;;;17.39;100.00
31346;BME280;21711;49.708;18.568;2023-07-20T03:30:00;96903.25;;;17.43;100.00
31346;BME280;21711;49.708;18.568;2023-07-20T03:32:28;96901.94;;;17.28;100.00
31346;BME280;21711;49.708;18.568;2023-07-20T03:34:55;96912.13;;;17.34;100.00
31346;BME280;21711;49.708;18.568;2023-07-20T03:37:23;96916.03;;;17.37;100.00
31346;BME280;21711;49.708;18.568;2023-07-20T03:39:50;96913.09;;;17.30;100.00
31346;BME280;21711;49.708;18.568;2023-07-20T03:42:18;96907.38;;;17.40;100.00
31346;BME280;21711;49.708;18.568;2023-07-20T03:44:45;96907.28;;;17.28;100.00
31346;BME280;21711;49.708;18.568;2023-07-20T03:47:12;96912.13;;;17.34;100.00
31346;BME280;21711;49.708;18.568;2023-07-20T03:49:40;96922.16;;;17.38;100.00
31346;BME280;21711;49.708;18.568;2023-07-20T03:52:07;96920.13;;;17.34;100.00
31346;BME280;21711;49.708;18.568;2023-07-20T03:54:35;96918.56;;;17.33;100.00
31346;BME280;21711;49.708;18.568;2023-07-20T03:57:02;96925.88;;;17.45;100.00
31346;BME280;21711;49.708;18.568;2023-07-20T03:59:29;96920.97;;;17.69;100.00
31346;BME280;21711;49.708;18.568;2023-07-20T04:01:57;96924.44;;;18.03;100.00
31346;BME280;21711;49.708;18.568;2023-07-20T04:04:25;96924.34;;;18.46;100.00
31346;BME280;21711;49.708;18.568;2023-07-20T04:06:52;96927.47;;;18.48;100.00
31346;BME280;21711;49.708;18.568;2023-07-20T04:09:19;96930.81;;;18.45;100.00
31346;BME280;21711;49.708;18.568;2023-07-20T04:11:47;96929.81;;;18.49;100.00
31346;BME280;21711;49.708;18.568;2023-07-20T04:14:14;96932.28;;;18.79;100.00
31346;BME280;21711;49.708;18.568;2023-07-20T04:16:41;96925.72;;;19.14;100.00
31346;BME280;21711;49.708;18.568;2023-07-20T04:19:09;96928.31;;;19.52;97.53
31346;BME280;21711;49.708;18.568;2023-07-20T04:21:40;96920.25;;;19.93;92.46
31346;BME280;21711;49.708;18.568;2023-07-20T04:24:08;96928.28;;;20.37;91.58
31346;BME280;21711;49.708;18.568;2023-07-20T04:26:37;96925.09;;;20.48;88.86
31346;BME280;21711;49.708;18.568;2023-07-20T04:29:04;96934.81;;;20.85;85.25
31346;BME280;21711;49.708;18.568;2023-07-20T04:31:37;96937.06;;;20.99;85.48
31346;BME280;21711;49.708;18.568;2023-07-20T04:34:05;96935.56;;;20.85;83.01
31346;BME280;21711;49.708;18.568;2023-07-20T04:36:34;96927.75;;;21.12;83.63
31346;BME280;21711;49.708;18.568;2023-07-20T04:39:03;96934.06;;;21.20;84.24
31346;BME280;21711;49.708;18.568;2023-07-20T04:41:43;96925.53;;;20.82;79.55
31346;BME280;21711;49.708;18.568;2023-07-20T04:44:10;96921.53;;;20.60;85.27
31346;BME280;21711;49.708;18.568;2023-07-20T04:46:38;96916.19;;;20.44;84.16
31346;BME280;21711;49.708;18.568;2023-07-20T04:49:07;96918.59;;;20.81;80.74
31346;BME280;21711;49.708;18.568;2023-07-20T04:51:38;96920.16;;;21.34;79.95
31346;BME280;21711;49.708;18.568;2023-07-20T04:54:06;96924.44;;;21.19;82.90
31346;BME280;21711;49.708;18.568;2023-07-20T04:56:36;96923.00;;;20.73;87.52
31346;BME280;21711;49.708;18.568;2023-07-20T04:59:06;96925.47;;;20.46;85.17
31346;BME280;21711;49.708;18.568;2023-07-20T05:01:34;96932.75;;;20.01;89.83
31346;BME280;21711;49.708;18.568;2023-07-20T05:04:02;96930.66;;;20.55;89.10
31346;BME280;21711;49.708;18.568;2023-07-20T05:06:29;96932.50;;;21.55;82.25
31346;BME280;21711;49.708;18.568;2023-07-20T05:08:56;96926.50;;;21.26;78.98
31346;BME280;21711;49.708;18.568;2023-07-20T05:11:24;96930.03;;;21.10;81.10
31346;BME280;21711;49.708;18.568;2023-07-20T05:13:52;96921.66;;;21.32;80.15
31346;BME280;21711;49.708;18.568;2023-07-20T05:16:19;96928.03;;;21.07;79.55
31346;BME280;21711;49.708;18.568;2023-07-20T05:18:47;96929.91;;;21.98;74.23
31346;BME280;21711;49.708;18.568;2023-07-20T05:21:14;96936.31;;;22.56;70.70
31346;BME280;21711;49.708;18.568;2023-07-20T05:23:42;96946.28;;;23.60;68.51
31346;BME280;21711;49.708;18.568;2023-07-20T05:26:09;96941.38;;;23.70;62.68
31346;BME280;21711;49.708;18.568;2023-07-20T05:28:36;96944.06;;;24.04;62.81
31346;BME280;21711;49.708;18.568;2023-07-20T05:31:04;96942.41;;;23.96;65.25
31346;BME280;21711;49.708;18.568;2023-07-20T05:33:31;96936.25;;;24.82;58.11
31346;BME280;21711;49.708;18.568;2023-07-20T05:35:59;96947.97;;;25.60;57.51
31346;BME280;21711;49.708;18.568;2023-07-20T05:38:26;96955.84;;;26.02;54.79
31346;BME280;21711;49.708;18.568;2023-07-20T05:40:59;96946.28;;;26.45;50.50
31346;BME280;21711;49.708;18.568;2023-07-20T05:43:29;96951.69;;;26.59;51.14
31346;BME280;21711;49.708;18.568;2023-07-20T05:45:57;96950.56;;;26.97;49.50
31346;BME280;21711;49.708;18.568;2023-07-20T05:48:24;96953.09;;;27.58;50.26
31346;BME280;21711;49.708;18.568;2023-07-20T05:50:52;96943.13;;;27.30;51.00
31346;BME280;21711;49.708;18.568;2023-07-20T05:53:19;96941.03;;;27.78;47.37
31346;BME280;21711;49.708;18.568;2023-07-20T05:55:53;96942.06;;;28.06;45.79
31346;BME280;21711;49.708;18.568;2023-07-20T05:58:21;96935.25;;;28.93;44.96
31346;BME280;21711;49.708;18.568;2023-07-20T06:00:49;96931.22;;;28.59;44.46
31346;BME280;21711;49.708;18.568;2023-07-20T06:03:17;96940.28;;;28.91;42.70
31346;BME280;21711;49.708;18.568;2023-07-20T06:05:45;96947.06;;;28.68;44.63
31346;BME280;21711;49.708;18.568;2023-07-20T06:08:13;96950.22;;;28.62;44.34
31346;BME280;21711;49.708;18.568;2023-07-20T06:10:40;96946.69;;;29.50;42.74
31346;BME280;21711;49.708;18.568;2023-07-20T06:13:11;96947.69;;;28.86;41.37
31346;BME280;21711;49.708;18.568;2023-07-20T06:15:39;96949.16;;;29.72;41.76
31346;BME280;21711;49.708;18.568;2023-07-20T06:18:08;96958.75;;;30.42;38.81
31346;BME280;21711;49.708;18.568;2023-07-20T06:20:35;96953.63;;;30.21;40.09
31346;BME280;21711;49.708;18.568;2023-07-20T06:23:03;96947.19;;;29.76;40.23
31346;BME280;21711;49.708;18.568;2023-07-20T06:25:30;96947.00;;;30.45;38.23
31346;BME280;21711;49.708;18.568;2023-07-20T06:27:57;96947.72;;;31.21;37.57
31346;BME280;21711;49.708;18.568;2023-07-20T06:30:25;96942.63;;;31.00;38.32
31346;BME280;21711;49.708;18.568;2023-07-20T06:32:52;96948.97;;;31.78;38.08
31346;BME280;21711;49.708;18.568;2023-07-20T06:35:20;96945.72;;;31.22;38.04
31346;BME280;21711;49.708;18.568;2023-07-20T06:37:47;96950.25;;;31.93;37.70
31346;BME280;21711;49.708;18.568;2023-07-20T06:40:15;96956.69;;;31.62;37.19
31346;BME280;21711;49.708;18.568;2023-07-20T06:42:45;96958.44;;;31.93;35.40
31346;BME280;21711;49.708;18.568;2023-07-20T06:45:15;96951.22;;;30.98;38.53
31346;BME280;21711;49.708;18.568;2023-07-20T06:47:43;96950.50;;;31.18;36.69
31346;BME280;21711;49.708;18.568;2023-07-20T06:50:11;96947.00;;;31.17;37.21
31346;BME280;21711;49.708;18.568;2023-07-20T06:52:43;96941.22;;;30.91;38.73
31346;BME280;21711;49.708;18.568;2023-07-20T06:55:11;96942.19;;;31.25;37.88
31346;BME280;21711;49.708;18.568;2023-07-20T06:57:38;96939.47;;;32.56;36.38
31346;BME280;21711;49.708;18.568;2023-07-20T07:00:06;96947.13;;;33.54;33.27
31346;BME280;21711;49.708;18.568;2023-07-20T07:02:34;96949.13;;;33.53;32.37
31346;BME280;21711;49.708;18.568;2023-07-20T07:05:03;96947.69;;;33.62;32.88
31346;BME280;21711;49.708;18.568;2023-07-20T07:07:46;96945.63;;;33.36;33.65
31346;BME280;21711;49.708;18.568;2023-07-20T07:10:14;96946.34;;;33.96;31.88
31346;BME280;21711;49.708;18.568;2023-07-20T07:12:41;96952.06;;;34.28;32.31
31346;BME280;21711;49.708;18.568;2023-07-20T07:15:09;96945.56;;;34.08;32.45
31346;BME280;21711;49.708;18.568;2023-07-20T07:17:38;96947.69;;;34.17;32.17
31346;BME280;21711;49.708;18.568;2023-07-20T07:20:07;96955.69;;;34.86;31.91
31346;BME280;21711;49.708;18.568;2023-07-20T07:22:37;96957.31;;;34.61;31.13
31346;BME280;21711;49.708;18.568;2023-07-20T07:25:05;96949.97;;;34.32;31.39
31346;BME280;21711;49.708;18.568;2023-07-20T07:27:34;96938.91;;;33.24;32.48
31346;BME280;21711;49.708;18.568;2023-07-20T07:30:03;96940.66;;;32.72;35.16
31346;BME280;21711;49.708;18.568;2023-07-20T07:32:31;96938.16;;;32.11;36.76
31346;BME280;21711;49.708;18.568;2023-07-20T07:34:59;96939.03;;;31.27;36.37
31346;BME280;21711;49.708;18.568;2023-07-20T07:37:27;96937.56;;;30.78;38.83
31346;BME280;21711;49.708;18.568;2023-07-20T07:39:57;96936.06;;;29.63;41.07
31346;BME280;21711;49.708;18.568;2023-07-20T07:42:24;96935.88;;;28.62;44.78
31346;BME280;21711;49.708;18.568;2023-07-20T07:44:51;96933.59;;;29.37;44.13
31346;BME280;21711;49.708;18.568;2023-07-20T07:47:19;96939.75;;;30.87;40.91
31346;BME280;21711;49.708;18.568;2023-07-20T07:49:46;96949.38;;;32.66;36.77
31346;BME280;21711;49.708;18.568;2023-07-20T07:52:13;96948.47;;;32.20;36.81
31346;BME280;21711;49.708;18.568;2023-07-20T07:54:41;96954.19;;;33.09;34.17
31346;BME280;21711;49.708;18.568;2023-07-20T07:57:08;96956.63;;;33.06;34.71
31346;BME280;21711;49.708;18.568;2023-07-20T07:59:36;96948.34;;;32.44;34.78
31346;BME280;21711;49.708;18.568;2023-07-20T08:02:05;96953.47;;;34.19;33.56
31346;BME280;21711;49.708;18.568;2023-07-20T08:04:32;96956.53;;;35.31;33.22
31346;BME280;21711;49.708;18.568;2023-07-20T08:07:01;96968.03;;;35.84;30.50
31346;BME280;21711;49.708;18.568;2023-07-20T08:09:29;96970.19;;;35.89;30.72
31346;BME280;21711;49.708;18.568;2023-07-20T08:11:56;96967.34;;;36.02;30.95
31346;BME280;21711;49.708;18.568;2023-07-20T08:14:24;96963.28;;;36.76;28.64
31346;BME280;21711;49.708;18.568;2023-07-20T08:16:51;96969.69;;;36.63;30.17
31346;BME280;21711;49.708;18.568;2023-07-20T08:19:20;96974.63;;;38.14;28.63
31346;BME280;21711;49.708;18.568;2023-07-20T08:21:48;96974.72;;;38.30;28.59
31346;BME280;21711;49.708;18.568;2023-07-20T08:24:15;96971.19;;;37.86;28.32
31346;BME280;21711;49.708;18.568;2023-07-20T08:26:42;96968.34;;;38.14;28.03
31346;BME280;21711;49.708;18.568;2023-07-20T08:29:10;96969.44;;;38.17;28.38
31346;BME280;21711;49.708;18.568;2023-07-20T08:31:37;96969.16;;;37.15;29.11
31346;BME280;21711;49.708;18.568;2023-07-20T08:34:04;96975.56;;;37.21;29.69
31346;BME280;21711;49.708;18.568;2023-07-20T08:36:46;96983.78;;;37.78;27.81
31346;BME280;21711;49.708;18.568;2023-07-20T08:39:13;96968.50;;;36.74;29.29
31346;BME280;21711;49.708;18.568;2023-07-20T08:41:43;96971.31;;;35.11;32.10
31346;BME280;21711;49.708;18.568;2023-07-20T08:44:13;96975.09;;;36.85;30.16
31346;BME280;21711;49.708;18.568;2023-07-20T08:46:41;96972.63;;;37.53;29.55
31346;BME280;21711;49.708;18.568;2023-07-20T08:49:11;96979.25;;;38.42;28.28
31346;BME280;21711;49.708;18.568;2023-07-20T08:51:38;96966.66;;;36.98;29.24
31346;BME280;21711;49.708;18.568;2023-07-20T08:54:06;96967.06;;;36.50;28.14
31346;BME280;21711;49.708;18.568;2023-07-20T08:56:35;96970.03;;;36.24;30.22
31346;BME280;21711;49.708;18.568;2023-07-20T08:59:02;96965.28;;;36.15;30.32
31346;BME280;21711;49.708;18.568;2023-07-20T09:01:30;96962.97;;;35.82;31.24
31346;BME280;21711;49.708;18.568;2023-07-20T09:03:57;96963.47;;;35.23;31.99
31346;BME280;21711;49.708;18.568;2023-07-20T09:06:24;96968.59;;;35.56;30.94
31346;BME280;21711;49.708;18.568;2023-07-20T09:08:53;96969.34;;;36.61;29.33
31346;BME280;21711;49.708;18.568;2023-07-20T09:11:21;96966.78;;;38.22;26.59
31346;BME280;21711;49.708;18.568;2023-07-20T09:14:09;96956.88;;;37.97;27.08
31346;BME280;21711;49.708;18.568;2023-07-20T09:16:55;96961.78;;;37.31;27.40
31346;BME280;21711;49.708;18.568;2023-07-20T09:19:23;96965.28;;;38.46;26.90
31346;BME280;21711;49.708;18.568;2023-07-20T09:21:51;96965.38;;;37.84;26.90
31346;BME280;21711;49.708;18.568;2023-07-20T09:24:20;96961.06;;;36.01;28.24
31346;BME280;21711;49.708;18.568;2023-07-20T09:26:48;96954.94;;;35.21;32.30
31346;BME280;21711;49.708;18.568;2023-07-20T09:29:18;96945.22;;;33.08;34.09
31346;BME280;21711;49.708;18.568;2023-07-20T09:32:20;96944.81;;;32.26;37.37
31346;BME280;21711;49.708;18.568;2023-07-20T09:34:52;96948.91;;;33.74;32.55
31346;BME280;21711;49.708;18.568;2023-07-20T09:37:23;96939.53;;;33.45;33.97
31346;BME280;21711;49.708;18.568;2023-07-20T09:39:54;96947.50;;;31.93;36.98
31346;BME280;21711;49.708;18.568;2023-07-20T09:42:25;96937.97;;;30.76;40.15
31346;BME280;21711;49.708;18.568;2023-07-20T09:44:57;96936.09;;;29.59;39.55
31346;BME280;21711;49.708;18.568;2023-07-20T09:47:25;96936.59;;;29.12;42.67
31346;BME280;21711;49.708;18.568;2023-07-20T09:49:59;96939.09;;;29.34;42.08
31346;BME280;21711;49.708;18.568;2023-07-20T09:52:31;96936.03;;;29.28;43.34
31346;BME280;21711;49.708;18.568;2023-07-20T09:55:03;96920.22;;;29.16;43.80
31346;BME280;21711;49.708;18.568;2023-07-20T09:57:30;96928.97;;;28.99;43.80
31346;BME280;21711;49.708;18.568;2023-07-20T09:59:59;96931.53;;;28.68;45.13
31346;BME280;21711;49.708;18.568;2023-07-20T10:02:33;96933.50;;;28.07;47.47
31346;BME280;21711;49.708;18.568;2023-07-20T10:05:03;96927.91;;;27.51;48.17
31346;BME280;21711;49.708;18.568;2023-07-20T10:07:31;96933.50;;;26.74;50.93
31346;BME280;21711;49.708;18.568;2023-07-20T10:10:01;96926.91;;;26.32;55.40
31346;BME280;21711;49.708;18.568;2023-07-20T10:12:31;96920.63;;;26.02;56.19
31346;BME280;21711;49.708;18.568;2023-07-20T10:15:27;96929.22;;;26.88;52.99
31346;BME280;21711;49.708;18.568;2023-07-20T10:18:51;96931.94;;;30.10;44.78
31346;BME280;21711;49.708;18.568;2023-07-20T10:21:20;96937.81;;;31.07;41.56
31346;BME280;21711;49.708;18.568;2023-07-20T10:23:54;96949.16;;;30.82;40.45
31346;BME280;21711;49.708;18.568;2023-07-20T10:26:26;96937.81;;;30.08;41.48
31346;BME280;21711;49.708;18.568;2023-07-20T10:28:54;96936.41;;;30.51;43.39
31346;BME280;21711;49.708;18.568;2023-07-20T10:31:24;96927.63;;;31.72;40.58
31346;BME280;21711;49.708;18.568;2023-07-20T10:33:52;96928.44;;;31.08;41.40
31346;BME280;21711;49.708;18.568;2023-07-20T10:36:27;96912.41;;;29.87;38.88
31346;BME280;21711;49.708;18.568;2023-07-20T10:38:58;96921.56;;;27.94;46.62
31346;BME280;21711;49.708;18.568;2023-07-20T10:41:35;96938.13;;;26.37;51.18
31346;BME280;21711;49.708;18.568;2023-07-20T10:44:06;96927.53;;;25.78;55.32
31346;BME280;21711;49.708;18.568;2023-07-20T10:46:44;96910.50;;;27.44;51.94
31346;BME280;21711;49.708;18.568;2023-07-20T10:49:14;96919.41;;;28.31;48.13
31346;BME280;21711;49.708;18.568;2023-07-20T10:51:44;96921.00;;;28.21;49.24
31346;BME280;21711;49.708;18.568;2023-07-20T10:56:47;96906.75;;;26.65;52.36
31346;BME280;21711;49.708;18.568;2023-07-20T10:59:38;96922.50;;;25.72;54.21
31346;BME280;21711;49.708;18.568;2023-07-20T11:02:09;96932.78;;;25.41;55.82
31346;BME280;21711;49.708;18.568;2023-07-20T11:04:44;96939.88;;;24.93;58.49
31346;BME280;21711;49.708;18.568;2023-07-20T11:07:16;96931.91;;;24.66;66.01
31346;BME280;21711;49.708;18.568;2023-07-20T11:09:44;96936.44;;;25.00;69.66
31346;BME280;21711;49.708;18.568;2023-07-20T11:12:18;96939.59;;;25.17;72.98
31346;BME280;21711;49.708;18.568;2023-07-20T11:14:57;96948.97;;;26.77;65.63
31346;BME280;21711;49.708;18.568;2023-07-20T11:17:32;96948.47;;;27.66;55.41
31346;BME280;21711;49.708;18.568;2023-07-20T11:20:02;96953.75;;;28.59;54.20
31346;BME280;21711;49.708;18.568;2023-07-20T11:22:33;96947.19;;;27.93;56.24
31346;BME280;21711;49.708;18.568;2023-07-20T11:25:01;96950.03;;;27.46;58.99
31346;BME280;21711;49.708;18.568;2023-07-20T11:27:28;96949.38;;;26.72;57.14
31346;BME280;21711;49.708;18.568;2023-07-20T11:29:56;96940.44;;;27.26;59.38
31346;BME280;21711;49.708;18.568;2023-07-20T11:32:24;96945.59;;;27.95;55.56
31346;BME280;21711;49.708;18.568;2023-07-20T11:34:52;96938.47;;;28.77;52.84
31346;BME280;21711;49.708;18.568;2023-07-20T11:37:19;96932.84;;;28.53;50.59
31346;BME280;21711;49.708;18.568;2023-07-20T11:39:46;96936.06;;;27.62;52.45
31346;BME280;21711;49.708;18.568;2023-07-20T11:42:15;96936.94;;;27.26;54.67
31346;BME280;21711;49.708;18.568;2023-07-20T11:44:45;96943.97;;;26.65;55.02
31346;BME280;21711;49.708;18.568;2023-07-20T11:47:13;96933.84;;;27.16;55.14
31346;BME280;21711;49.708;18.568;2023-07-20T11:49:43;96925.81;;;27.95;55.80
31346;BME280;21711;49.708;18.568;2023-07-20T11:52:14;96929.56;;;28.16;52.87
31346;BME280;21711;49.708;18.568;2023-07-20T11:54:44;96927.91;;;27.51;51.41
31346;BME280;21711;49.708;18.568;2023-07-20T11:57:20;96942.66;;;27.61;52.49
31346;BME280;21711;49.708;18.568;2023-07-20T12:00:04;96936.19;;;26.96;50.85
31346;BME280;21711;49.708;18.568;2023-07-20T12:02:38;96936.50;;;27.38;53.16
31346;BME280;21711;49.708;18.568;2023-07-20T12:05:08;96947.66;;;27.73;53.33
31346;BME280;21711;49.708;18.568;2023-07-20T12:07:36;96941.06;;;27.70;52.27
31346;BME280;21711;49.708;18.568;2023-07-20T12:10:10;96940.03;;;27.31;54.11
31346;BME280;21711;49.708;18.568;2023-07-20T12:12:43;96936.91;;;27.33;50.22
31346;BME280;21711;49.708;18.568;2023-07-20T12:15:27;96926.81;;;27.41;51.91
31346;BME280;21711;49.708;18.568;2023-07-20T12:18:01;96927.97;;;28.26;52.28
31346;BME280;21711;49.708;18.568;2023-07-20T12:23:03;96926.03;;;28.19;47.96
31346;BME280;21711;49.708;18.568;2023-07-20T12:25:43;96927.88;;;27.73;48.04
31346;BME280;21711;49.708;18.568;2023-07-20T12:28:12;96929.28;;;27.99;48.22
31346;BME280;21711;49.708;18.568;2023-07-20T12:30:42;96928.41;;;28.13;47.13
31346;BME280;21711;49.708;18.568;2023-07-20T12:33:11;96939.56;;;28.33;48.75
31346;BME280;21711;49.708;18.568;2023-07-20T12:35:41;96931.38;;;27.58;46.13
31346;BME280;21711;49.708;18.568;2023-07-20T12:38:10;96932.50;;;27.72;50.22
31346;BME280;21711;49.708;18.568;2023-07-20T12:40:37;96920.56;;;27.51;51.23
31346;BME280;21711;49.708;18.568;2023-07-20T12:43:04;96923.66;;;27.50;51.60
31346;BME280;21711;49.708;18.568;2023-07-20T12:45:33;96927.63;;;27.16;49.57
31346;BME280;21711;49.708;18.568;2023-07-20T12:48:01;96924.97;;;27.01;52.03
31346;BME280;21711;49.708;18.568;2023-07-20T12:50:28;96922.09;;;27.52;48.98
31346;BME280;21711;49.708;18.568;2023-07-20T12:52:55;96919.75;;;27.65;46.17
31346;BME280;21711;49.708;18.568;2023-07-20T12:55:23;96916.00;;;27.19;45.09
31346;BME280;21711;49.708;18.568;2023-07-20T12:57:50;96908.72;;;26.94;46.58
31346;BME280;21711;49.708;18.568;2023-07-20T13:00:18;96916.84;;;26.90;47.23
31346;BME280;21711;49.708;18.568;2023-07-20T13:02:45;96909.09;;;26.74;52.51
31346;BME280;21711;49.708;18.568;2023-07-20T13:05:13;96908.72;;;26.47;50.20
31346;BME280;21711;49.708;18.568;2023-07-20T13:07:42;96906.34;;;26.16;53.02
31346;BME280;21711;49.708;18.568;2023-07-20T13:10:12;96917.09;;;25.83;53.78
31346;BME280;21711;49.708;18.568;2023-07-20T13:12:39;96912.81;;;25.64;55.81
31346;BME280;21711;49.708;18.568;2023-07-20T13:15:09;96921.56;;;25.39;60.53
31346;BME280;21711;49.708;18.568;2023-07-20T13:17:39;96920.94;;;24.97;59.40